createdAt,value
2016-08-05T00:00:46.927Z,94.88
2016-08-05T00:01:46.924Z,94.59
2016-08-05T00:02:46.922Z,94.49
2016-08-05T00:03:46.928Z,94.78
2016-08-05T00:04:46.919Z,95.26
2016-08-05T00:05:46.929Z,95.55
2016-08-05T00:06:46.924Z,95.36
2016-08-05T00:07:46.918Z,95.26
2016-08-05T00:08:46.916Z,95.55
2016-08-05T00:09:46.922Z,95.36
2016-08-05T00:10:46.915Z,95.26
2016-08-05T00:11:46.916Z,95.84
2016-08-05T00:12:46.919Z,95.84
2016-08-05T00:13:46.913Z,95.75
2016-08-05T00:14:46.912Z,96.22
2016-08-05T00:15:46.916Z,96.22
2016-08-05T00:16:46.912Z,96.51
2016-08-05T00:18:48.151Z,96.61
2016-08-05T00:20:47.391Z,96.8
2016-08-05T00:21:47.165Z,97.09
2016-08-05T00:22:46.909Z,97.28
2016-08-05T00:23:46.924Z,97.28
2016-08-05T00:24:46.904Z,97.57
2016-08-05T00:25:46.902Z,97.66
2016-08-05T00:26:48.093Z,97.86
2016-08-05T00:27:48.337Z,97.96
2016-08-05T00:28:48.278Z,98.34
2016-08-05T00:29:46.900Z,97.96
2016-08-05T00:30:46.912Z,98.14
2016-08-05T00:31:46.894Z,98.63
2016-08-05T00:32:47.609Z,98.19
2016-08-05T00:33:46.894Z,98.53
2016-08-05T00:34:46.897Z,98.53
2016-08-05T00:35:46.899Z,98.67
2016-08-05T00:36:46.888Z,98.77
2016-08-05T00:37:46.895Z,98.72
2016-08-05T00:38:46.895Z,98.58
2016-08-05T00:39:46.889Z,98.48
2016-08-05T00:40:46.887Z,98.67
2016-08-05T00:41:46.884Z,98.58
2016-08-05T00:42:46.889Z,98.67
2016-08-05T00:43:46.883Z,98.86
2016-08-05T00:44:46.880Z,99.05
2016-08-05T00:45:46.882Z,99.25
2016-08-05T00:46:46.879Z,99.54
2016-08-05T00:47:46.879Z,99.15
2016-08-05T00:48:46.877Z,99.25
2016-08-05T00:49:46.883Z,99.15
2016-08-05T00:50:46.879Z,99.44
2016-08-05T00:51:46.877Z,99.73
2016-08-05T00:52:46.874Z,99.63
2016-08-05T00:53:46.871Z,99.73
2016-08-05T00:54:46.871Z,99.92
2016-08-05T00:55:46.867Z,99.73
2016-08-05T00:56:46.867Z,99.77
2016-08-05T00:57:47.469Z,99.58
2016-08-05T00:58:47.767Z,99.99
2016-08-05T01:00:46.868Z,99.99
2016-08-05T01:01:46.863Z,99.99
2016-08-05T01:02:46.863Z,99.99
2016-08-05T01:03:46.858Z,99.99
2016-08-05T01:04:46.859Z,99.99
2016-08-05T01:05:46.863Z,99.99
2016-08-05T01:06:46.855Z,99.99
2016-08-05T01:07:46.850Z,99.99
2016-08-05T01:08:46.847Z,99.99
2016-08-05T01:09:46.860Z,99.99
2016-08-05T01:10:46.997Z,99.99
2016-08-05T01:11:46.848Z,99.99
2016-08-05T01:12:46.843Z,99.99
2016-08-05T01:13:47.048Z,99.99
2016-08-05T01:14:46.843Z,99.99
2016-08-05T01:15:46.840Z,99.99
2016-08-05T01:16:46.845Z,99.99
2016-08-05T01:17:46.836Z,99.99
2016-08-05T01:18:46.835Z,99.99
2016-08-05T01:19:46.837Z,99.99
2016-08-05T01:20:46.829Z,99.99
2016-08-05T01:21:46.828Z,99.99
2016-08-05T01:22:46.827Z,99.99
2016-08-05T01:23:46.825Z,99.99
2016-08-05T01:24:46.829Z,99.99
2016-08-05T01:25:46.821Z,99.99
2016-08-05T01:26:46.821Z,99.99
2016-08-05T01:27:46.817Z,99.99
2016-08-05T01:28:46.819Z,99.99
2016-08-05T01:29:46.828Z,99.99
2016-08-05T01:30:46.817Z,99.99
2016-08-05T01:31:46.810Z,99.99
2016-08-05T01:32:46.813Z,99.99
2016-08-05T01:33:46.809Z,99.99
2016-08-05T01:34:46.816Z,99.99
2016-08-05T01:35:47.626Z,99.99
2016-08-05T01:36:48.325Z,99.99
2016-08-05T01:37:46.802Z,99.99
2016-08-05T01:38:47.589Z,99.99
2016-08-05T01:39:46.804Z,99.99
2016-08-05T01:40:46.798Z,99.99
2016-08-05T01:41:46.895Z,99.99
2016-08-05T01:42:46.801Z,99.99
2016-08-05T01:43:46.799Z,99.99
2016-08-05T01:45:46.789Z,99.99
2016-08-05T01:46:46.887Z,99.99
2016-08-05T01:47:46.786Z,99.99
2016-08-05T01:48:47.480Z,99.99
2016-08-05T01:49:47.439Z,99.99
2016-08-05T01:50:47.075Z,99.99
2016-08-05T01:51:46.785Z,99.99
2016-08-05T01:52:46.782Z,99.99
2016-08-05T01:53:46.779Z,99.99
2016-08-05T01:54:46.770Z,99.99
2016-08-05T01:55:46.773Z,99.99
2016-08-05T01:56:46.774Z,99.99
2016-08-05T01:57:46.771Z,99.99
2016-08-05T01:58:46.766Z,99.99
2016-08-05T01:59:46.766Z,99.99
2016-08-05T02:00:46.862Z,99.99
2016-08-05T02:01:46.757Z,99.99
2016-08-05T02:02:46.756Z,99.99
2016-08-05T02:03:46.754Z,99.99
2016-08-05T02:04:46.756Z,99.99
2016-08-05T02:05:46.753Z,99.99
2016-08-05T02:06:46.753Z,99.99
2016-08-05T02:07:46.746Z,99.99
2016-08-05T02:08:46.745Z,99.99
2016-08-05T02:09:46.745Z,99.99
2016-08-05T02:10:46.744Z,99.99
2016-08-05T02:11:46.736Z,99.99
2016-08-05T02:12:46.741Z,99.99
2016-08-05T02:13:46.735Z,99.99
2016-08-05T02:14:46.733Z,99.99
2016-08-05T02:16:46.733Z,99.99
2016-08-05T02:17:47.178Z,99.99
2016-08-05T02:18:46.726Z,99.99
2016-08-05T02:19:46.722Z,99.99
2016-08-05T02:20:46.721Z,99.99
2016-08-05T02:21:46.713Z,99.99
2016-08-05T02:22:46.865Z,99.99
2016-08-05T02:23:46.712Z,99.99
2016-08-05T02:24:47.870Z,99.99
2016-08-05T02:25:47.004Z,99.99
2016-08-05T02:26:46.711Z,99.99
2016-08-05T02:27:46.702Z,99.99
2016-08-05T02:28:46.705Z,99.99
2016-08-05T02:29:46.703Z,99.99
2016-08-05T02:30:46.694Z,99.99
2016-08-05T02:31:46.696Z,99.99
2016-08-05T02:32:46.692Z,99.99
2016-08-05T02:33:47.380Z,99.99
2016-08-05T02:34:46.695Z,99.99
2016-08-05T02:35:46.679Z,99.99
2016-08-05T02:36:46.686Z,99.99
2016-08-05T02:37:46.678Z,99.99
2016-08-05T02:38:46.680Z,99.99
2016-08-05T02:39:46.674Z,99.99
2016-08-05T02:40:47.372Z,99.99
2016-08-05T02:41:46.671Z,99.99
2016-08-05T02:42:46.665Z,99.99
2016-08-05T02:43:46.662Z,99.99
2016-08-05T02:44:46.666Z,99.99
2016-08-05T02:45:46.660Z,99.99
2016-08-05T02:46:46.662Z,99.99
2016-08-05T02:47:46.659Z,99.99
2016-08-05T02:48:46.658Z,99.99
2016-08-05T02:49:46.655Z,99.99
2016-08-05T02:50:46.650Z,99.99
2016-08-05T02:51:46.646Z,99.99
2016-08-05T02:52:46.648Z,99.99
2016-08-05T02:53:46.644Z,99.99
2016-08-05T02:54:46.654Z,99.99
2016-08-05T02:55:46.637Z,99.99
2016-08-05T02:56:46.639Z,99.99
2016-08-05T02:57:46.635Z,99.99
2016-08-05T02:58:46.625Z,99.99
2016-08-05T02:59:46.628Z,99.99
2016-08-05T03:00:46.639Z,99.99
2016-08-05T03:01:46.623Z,99.99
2016-08-05T03:02:46.622Z,99.99
2016-08-05T03:03:46.617Z,99.99
2016-08-05T03:04:46.613Z,99.99
2016-08-05T03:05:46.617Z,99.99
2016-08-05T03:06:46.609Z,99.99
2016-08-05T03:07:46.612Z,99.99
2016-08-05T03:08:46.601Z,99.99
2016-08-05T03:09:46.609Z,99.99
2016-08-05T03:10:46.599Z,99.99
2016-08-05T03:11:46.594Z,99.99
2016-08-05T03:12:46.599Z,99.99
2016-08-05T03:13:46.592Z,99.99
2016-08-05T03:14:46.587Z,99.99
2016-08-05T03:15:46.584Z,99.99
2016-08-05T03:16:46.586Z,99.99
2016-08-05T03:17:46.583Z,99.99
2016-08-05T03:18:46.582Z,99.99
2016-08-05T03:19:46.574Z,99.99
2016-08-05T03:20:46.570Z,99.99
2016-08-05T03:21:46.574Z,99.99
2016-08-05T03:22:46.569Z,99.99
2016-08-05T03:23:46.571Z,99.99
2016-08-05T03:24:46.561Z,99.99
2016-08-05T03:25:46.559Z,99.99
2016-08-05T03:26:46.557Z,99.99
2016-08-05T03:27:46.552Z,99.99
2016-08-05T03:28:46.557Z,99.99
2016-08-05T03:29:46.555Z,99.99
2016-08-05T03:30:46.551Z,99.99
2016-08-05T03:31:46.543Z,99.99
2016-08-05T03:32:46.543Z,99.99
2016-08-05T03:33:47.397Z,99.99
2016-08-05T03:35:46.534Z,99.99
2016-08-05T03:36:46.689Z,99.99
2016-08-05T03:37:46.531Z,99.99
2016-08-05T03:38:46.532Z,99.99
2016-08-05T03:39:46.523Z,99.99
2016-08-05T03:40:46.522Z,99.99
2016-08-05T03:41:46.521Z,99.99
2016-08-05T03:42:46.522Z,99.99
2016-08-05T03:44:01.434Z,99.99
2016-08-05T03:44:47.014Z,99.99
2016-08-05T03:45:46.514Z,99.99
2016-08-05T03:46:46.514Z,99.99
2016-08-05T03:47:46.503Z,99.99
2016-08-05T03:48:46.507Z,99.99
2016-08-05T03:49:46.503Z,99.99
2016-08-05T03:50:46.499Z,99.99
2016-08-05T03:51:46.499Z,99.99
2016-08-05T03:52:46.497Z,99.99
2016-08-05T03:53:46.496Z,99.99
2016-08-05T03:54:47.438Z,99.99
2016-08-05T03:55:46.493Z,99.99
2016-08-05T03:56:46.481Z,99.99
2016-08-05T03:57:47.251Z,99.99
2016-08-05T03:58:46.482Z,99.99
2016-08-05T03:59:46.475Z,99.99
2016-08-05T04:00:46.571Z,99.99
2016-08-05T04:01:46.473Z,99.99
2016-08-05T04:02:47.991Z,99.99
2016-08-05T04:03:46.470Z,99.99
2016-08-05T04:04:46.988Z,99.99
2016-08-05T04:05:47.275Z,99.99
2016-08-05T04:06:46.464Z,99.99
2016-08-05T04:07:46.459Z,99.99
2016-08-05T04:08:46.455Z,99.99
2016-08-05T04:09:46.455Z,99.99
2016-08-05T04:10:46.454Z,99.99
2016-08-05T04:11:46.450Z,99.99
2016-08-05T04:12:46.442Z,99.99
2016-08-05T04:13:46.443Z,99.99
2016-08-05T04:14:46.441Z,99.99
2016-08-05T04:15:46.438Z,99.99
2016-08-05T04:16:46.435Z,99.99
2016-08-05T04:17:46.434Z,99.99
2016-08-05T04:18:46.427Z,99.99
2016-08-05T04:19:46.427Z,99.99
2016-08-05T04:20:46.430Z,99.99
2016-08-05T04:21:46.427Z,99.99
2016-08-05T04:22:46.422Z,99.99
2016-08-05T04:23:46.418Z,99.99
2016-08-05T04:24:46.415Z,99.99
2016-08-05T04:26:46.409Z,99.99
2016-08-05T04:27:46.403Z,99.99
2016-08-05T04:28:46.400Z,99.99
2016-08-05T04:29:46.404Z,99.99
2016-08-05T04:30:46.400Z,99.99
2016-08-05T04:31:46.397Z,99.99
2016-08-05T04:32:46.399Z,99.99
2016-08-05T04:33:46.385Z,99.99
2016-08-05T04:34:46.387Z,99.99
2016-08-05T04:35:46.389Z,99.99
2016-08-05T04:36:46.381Z,99.99
2016-08-05T04:37:46.379Z,99.99
2016-08-05T04:38:46.387Z,99.99
2016-08-05T04:39:46.370Z,99.99
2016-08-05T04:41:46.381Z,99.99
2016-08-05T04:42:46.367Z,99.99
2016-08-05T04:43:46.360Z,99.99
2016-08-05T04:44:46.363Z,99.99
2016-08-05T04:45:46.364Z,99.99
2016-08-05T04:46:46.358Z,99.99
2016-08-05T04:47:46.358Z,99.99
2016-08-05T04:48:46.353Z,99.99
2016-08-05T04:49:46.357Z,99.99
2016-08-05T04:50:46.352Z,99.99
2016-08-05T04:51:46.343Z,99.99
2016-08-05T04:53:01.258Z,99.99
2016-08-05T04:54:02.205Z,99.99
2016-08-05T04:54:46.581Z,99.99
2016-08-05T04:55:46.685Z,99.99
2016-08-05T04:56:46.481Z,99.99
2016-08-05T04:57:46.325Z,99.99
2016-08-05T04:58:46.325Z,99.99
2016-08-05T04:59:46.318Z,99.99
2016-08-05T05:00:46.321Z,99.99
2016-08-05T05:01:46.320Z,99.99
2016-08-05T05:02:46.322Z,99.99
2016-08-05T05:03:46.308Z,99.99
2016-08-05T05:04:46.406Z,99.99
2016-08-05T05:05:46.608Z,99.99
2016-08-05T05:06:46.303Z,99.99
2016-08-05T05:07:46.298Z,99.99
2016-08-05T05:08:46.297Z,99.99
2016-08-05T05:09:46.295Z,99.99
2016-08-05T05:10:46.292Z,99.99
2016-08-05T05:11:47.808Z,99.99
2016-08-05T05:12:46.288Z,99.99
2016-08-05T05:13:46.299Z,99.99
2016-08-05T05:14:46.279Z,99.99
2016-08-05T05:15:46.450Z,99.99
2016-08-05T05:16:46.276Z,99.99
2016-08-05T05:17:46.513Z,99.99
2016-08-05T05:18:46.575Z,99.99
2016-08-05T05:19:46.268Z,99.99
2016-08-05T05:20:46.271Z,99.99
2016-08-05T05:21:47.127Z,99.99
2016-08-05T05:22:46.659Z,99.99
2016-08-05T05:23:46.262Z,99.99
2016-08-05T05:24:46.258Z,99.99
2016-08-05T05:25:46.258Z,99.99
2016-08-05T05:26:46.832Z,99.99
2016-08-05T05:27:46.255Z,99.99
2016-08-05T05:28:46.251Z,99.99
2016-08-05T05:29:46.245Z,99.99
2016-08-05T05:30:46.246Z,99.99
2016-08-05T05:31:46.241Z,99.99
2016-08-05T05:32:46.240Z,99.99
2016-08-05T05:33:46.236Z,99.99
2016-08-05T05:34:46.228Z,99.99
2016-08-05T05:35:46.226Z,99.99
2016-08-05T05:36:46.231Z,99.99
2016-08-05T05:37:46.223Z,99.99
2016-08-05T05:38:46.219Z,99.99
2016-08-05T05:39:46.222Z,99.99
2016-08-05T05:40:46.219Z,99.99
2016-08-05T05:41:46.216Z,99.99
2016-08-05T05:42:46.212Z,99.99
2016-08-05T05:43:46.211Z,99.99
2016-08-05T05:44:46.214Z,99.99
2016-08-05T05:45:46.218Z,99.99
2016-08-05T05:46:46.198Z,99.99
2016-08-05T05:47:46.197Z,99.99
2016-08-05T05:48:46.195Z,99.99
2016-08-05T05:49:46.202Z,99.99
2016-08-05T05:50:46.190Z,99.99
2016-08-05T05:51:46.191Z,99.99
2016-08-05T05:52:46.187Z,99.99
2016-08-05T05:53:46.187Z,99.99
2016-08-05T05:54:46.187Z,99.99
2016-08-05T05:55:46.179Z,99.99
2016-08-05T05:56:46.179Z,99.99
2016-08-05T05:57:46.180Z,99.99
2016-08-05T05:58:46.174Z,99.99
2016-08-05T05:59:46.170Z,99.99
2016-08-05T06:00:46.265Z,99.99
2016-08-05T06:01:46.173Z,99.99
2016-08-05T06:02:46.175Z,99.99
2016-08-05T06:03:46.163Z,99.99
2016-08-05T06:04:46.159Z,99.99
2016-08-05T06:05:46.158Z,99.99
2016-08-05T06:06:46.151Z,99.99
2016-08-05T06:07:46.145Z,99.99
2016-08-05T06:08:46.147Z,99.99
2016-08-05T06:09:46.144Z,99.99
2016-08-05T06:10:46.141Z,99.99
2016-08-05T06:11:46.139Z,99.99
2016-08-05T06:12:46.432Z,99.99
2016-08-05T06:14:01.049Z,99.99
2016-08-05T06:14:46.135Z,99.99
2016-08-05T06:15:46.127Z,99.99
2016-08-05T06:16:46.123Z,99.99
2016-08-05T06:17:46.125Z,99.99
2016-08-05T06:18:46.123Z,99.99
2016-08-05T06:19:47.217Z,99.99
2016-08-05T06:20:46.113Z,99.99
2016-08-05T06:21:46.112Z,99.99
2016-08-05T06:23:01.026Z,99.99
2016-08-05T06:23:46.308Z,99.99
2016-08-05T06:24:46.408Z,99.99
2016-08-05T06:25:46.102Z,99.99
2016-08-05T06:26:46.101Z,99.99
2016-08-05T06:27:46.096Z,99.99
2016-08-05T06:28:46.100Z,99.99
2016-08-05T06:29:46.094Z,99.99
2016-08-05T06:30:47.139Z,99.99
2016-08-05T06:31:47.156Z,99.99
2016-08-05T06:32:46.081Z,99.99
2016-08-05T06:33:47.235Z,99.99
2016-08-05T06:34:46.077Z,99.99
2016-08-05T06:35:46.613Z,99.99
2016-08-05T06:36:46.072Z,99.99
2016-08-05T06:37:46.072Z,99.99
2016-08-05T06:38:46.071Z,99.99
2016-08-05T06:39:47.199Z,99.99
2016-08-05T06:40:47.584Z,99.99
2016-08-05T06:41:46.062Z,99.99
2016-08-05T06:42:46.928Z,99.99
2016-08-05T06:43:46.060Z,99.99
2016-08-05T06:44:46.060Z,99.99
2016-08-05T06:45:46.198Z,99.99
2016-08-05T06:46:46.054Z,99.99
2016-08-05T06:47:46.052Z,99.99
2016-08-05T06:48:46.045Z,99.99
2016-08-05T06:49:46.039Z,99.99
2016-08-05T06:50:46.038Z,99.99
2016-08-05T06:51:46.041Z,99.99
2016-08-05T06:52:46.036Z,99.99
2016-08-05T06:53:46.033Z,99.99
2016-08-05T06:54:46.034Z,99.99
2016-08-05T06:55:46.031Z,99.99
2016-08-05T06:56:46.027Z,99.99
2016-08-05T06:57:46.030Z,99.99
2016-08-05T06:58:46.020Z,99.99
2016-08-05T06:59:46.017Z,99.99
2016-08-05T07:00:46.021Z,99.99
2016-08-05T07:01:46.019Z,99.99
2016-08-05T07:02:46.018Z,99.99
2016-08-05T07:03:46.014Z,99.99
2016-08-05T07:04:46.006Z,99.99
2016-08-05T07:05:46.010Z,99.99
2016-08-05T07:06:46.005Z,99.99
2016-08-05T07:07:46.002Z,99.99
2016-08-05T07:08:46.001Z,99.99
2016-08-05T07:09:45.995Z,99.99
2016-08-05T07:10:46.001Z,99.99
2016-08-05T07:11:46.003Z,99.99
2016-08-05T07:12:45.995Z,99.99
2016-08-05T07:13:45.990Z,99.99
2016-08-05T07:14:45.985Z,99.99
2016-08-05T07:15:45.985Z,99.99
2016-08-05T07:16:45.980Z,99.99
2016-08-05T07:17:45.986Z,99.99
2016-08-05T07:18:45.982Z,99.99
2016-08-05T07:19:45.977Z,99.99
2016-08-05T07:20:45.976Z,99.99
2016-08-05T07:21:45.972Z,99.99
2016-08-05T07:22:45.975Z,99.99
2016-08-05T07:23:45.972Z,99.99
2016-08-05T07:24:45.973Z,99.99
2016-08-05T07:25:45.967Z,99.99
2016-08-05T07:26:45.970Z,99.99
2016-08-05T07:27:46.667Z,99.99
2016-08-05T07:29:45.963Z,99.99
2016-08-05T07:30:46.364Z,99.99
2016-08-05T07:31:46.213Z,99.99
2016-08-05T07:32:45.961Z,99.99
2016-08-05T07:33:46.105Z,99.99
2016-08-05T07:34:46.053Z,99.99
2016-08-05T07:35:45.953Z,99.99
2016-08-05T07:36:45.952Z,99.99
2016-08-05T07:38:00.867Z,99.99
2016-08-05T07:38:46.901Z,99.99
2016-08-05T07:39:45.951Z,99.99
2016-08-05T07:40:46.251Z,99.99
2016-08-05T07:41:45.946Z,99.99
2016-08-05T07:42:45.943Z,99.99
2016-08-05T07:43:45.943Z,99.99
2016-08-05T07:44:45.944Z,99.99
2016-08-05T07:45:46.046Z,99.99
2016-08-05T07:46:45.938Z,99.99
2016-08-05T07:47:45.939Z,99.99
2016-08-05T07:48:47.024Z,99.99
2016-08-05T07:49:46.256Z,99.99
2016-08-05T07:50:45.931Z,99.99
2016-08-05T07:51:45.936Z,99.99
2016-08-05T07:52:46.393Z,99.99
2016-08-05T07:53:45.935Z,99.99
2016-08-05T07:54:45.929Z,99.99
2016-08-05T07:55:45.936Z,99.99
2016-08-05T07:56:45.928Z,99.99
2016-08-05T07:57:45.931Z,99.99
2016-08-05T07:58:46.694Z,99.99
2016-08-05T07:59:45.923Z,99.99
2016-08-05T08:00:45.922Z,99.99
2016-08-05T08:01:46.508Z,99.99
2016-08-05T08:02:45.919Z,99.99
2016-08-05T08:03:45.918Z,99.99
2016-08-05T08:04:45.929Z,99.99
2016-08-05T08:05:45.923Z,99.99
2016-08-05T08:06:45.917Z,99.99
2016-08-05T08:07:45.916Z,99.99
2016-08-05T08:08:45.918Z,99.99
2016-08-05T08:09:45.918Z,99.99
2016-08-05T08:10:45.911Z,99.99
2016-08-05T08:11:45.915Z,99.99
2016-08-05T08:12:45.914Z,99.99
2016-08-05T08:13:45.910Z,99.99
2016-08-05T08:14:45.912Z,99.99
2016-08-05T08:15:46.605Z,99.99
2016-08-05T08:16:45.907Z,99.99
2016-08-05T08:17:45.909Z,99.99
2016-08-05T08:18:51.847Z,99.99
2016-08-05T08:19:45.907Z,99.99
2016-08-05T08:20:45.900Z,99.99
2016-08-05T08:21:45.904Z,99.99
2016-08-05T08:22:45.899Z,99.99
2016-08-05T08:23:45.902Z,99.99
2016-08-05T08:24:45.896Z,99.99
2016-08-05T08:25:45.904Z,99.99
2016-08-05T08:26:45.897Z,99.99
2016-08-05T08:27:45.906Z,99.99
2016-08-05T08:28:45.894Z,99.99
2016-08-05T08:29:45.900Z,99.99
2016-08-05T08:30:45.887Z,99.99
2016-08-05T08:31:45.888Z,99.99
2016-08-05T08:32:45.893Z,99.99
2016-08-05T08:33:45.891Z,99.99
2016-08-05T08:34:45.886Z,99.99
2016-08-05T08:35:45.882Z,99.99
2016-08-05T08:36:45.886Z,99.99
2016-08-05T08:37:45.884Z,99.99
2016-08-05T08:38:45.879Z,99.99
2016-08-05T08:39:45.877Z,99.99
2016-08-05T08:40:45.880Z,99.99
2016-08-05T08:41:45.884Z,99.99
2016-08-05T08:42:45.879Z,99.99
2016-08-05T08:43:45.880Z,99.99
2016-08-05T08:44:45.876Z,99.99
2016-08-05T08:45:45.873Z,99.99
2016-08-05T08:46:46.377Z,99.99
2016-08-05T08:48:46.326Z,99.99
2016-08-05T08:49:46.171Z,99.99
2016-08-05T08:50:46.427Z,99.99
2016-08-05T08:51:46.120Z,99.99
2016-08-05T08:52:46.560Z,99.99
2016-08-05T08:53:45.866Z,99.99
2016-08-05T08:54:45.868Z,99.99
2016-08-05T08:55:45.867Z,99.99
2016-08-05T08:56:46.472Z,99.99
2016-08-05T08:57:46.069Z,99.99
2016-08-05T08:58:45.870Z,99.99
2016-08-05T08:59:45.863Z,99.99
2016-08-05T09:00:45.868Z,99.99
2016-08-05T09:01:46.318Z,99.99
2016-08-05T09:02:45.871Z,99.99
2016-08-05T09:03:45.876Z,99.99
2016-08-05T09:04:45.869Z,99.99
2016-08-05T09:05:45.867Z,99.99
2016-08-05T09:06:45.867Z,99.99
2016-08-05T09:07:46.914Z,99.99
2016-08-05T09:08:45.875Z,99.99
2016-08-05T09:09:46.018Z,99.99
2016-08-05T09:10:45.985Z,99.99
2016-08-05T09:11:45.874Z,99.99
2016-08-05T09:12:45.878Z,99.99
2016-08-05T09:13:45.878Z,99.99
2016-08-05T09:14:45.879Z,99.99
2016-08-05T09:15:46.499Z,99.99
2016-08-05T09:16:45.875Z,99.99
2016-08-05T09:17:45.881Z,99.99
2016-08-05T09:18:45.876Z,99.99
2016-08-05T09:19:46.164Z,99.99
2016-08-05T09:20:45.886Z,99.99
2016-08-05T09:21:46.123Z,99.99
2016-08-05T09:22:46.123Z,99.99
2016-08-05T09:23:45.883Z,99.99
2016-08-05T09:24:45.884Z,99.99
2016-08-05T09:25:45.892Z,99.99
2016-08-05T09:26:45.898Z,99.99
2016-08-05T09:27:45.890Z,99.99
2016-08-05T09:28:45.897Z,99.99
2016-08-05T09:29:45.894Z,99.99
2016-08-05T09:30:45.904Z,99.99
2016-08-05T09:31:45.901Z,99.99
2016-08-05T09:32:45.908Z,99.99
2016-08-05T09:33:45.904Z,99.99
2016-08-05T09:34:45.909Z,99.99
2016-08-05T09:35:45.912Z,99.99
2016-08-05T09:36:45.912Z,99.99
2016-08-05T09:37:45.914Z,99.99
2016-08-05T09:38:45.919Z,99.99
2016-08-05T09:39:45.920Z,99.99
2016-08-05T09:40:45.923Z,99.99
2016-08-05T09:41:45.929Z,99.99
2016-08-05T09:42:45.928Z,99.99
2016-08-05T09:43:45.934Z,99.99
2016-08-05T09:44:45.938Z,99.99
2016-08-05T09:45:45.933Z,99.99
2016-08-05T09:46:45.938Z,99.99
2016-08-05T09:47:45.940Z,99.99
2016-08-05T09:48:45.942Z,99.99
2016-08-05T09:49:45.953Z,99.99
2016-08-05T09:50:45.964Z,99.99
2016-08-05T09:51:45.953Z,99.99
2016-08-05T09:52:45.957Z,99.99
2016-08-05T09:53:45.963Z,99.99
2016-08-05T09:54:45.964Z,99.99
2016-08-05T09:55:45.975Z,99.99
2016-08-05T09:56:45.992Z,99.99
2016-08-05T09:57:45.974Z,99.99
2016-08-05T09:58:45.974Z,99.99
2016-08-05T09:59:46.976Z,99.99
2016-08-05T10:00:45.986Z,99.99
2016-08-05T10:01:45.987Z,99.99
2016-08-05T10:02:45.998Z,99.99
2016-08-05T10:03:45.996Z,99.99
2016-08-05T10:04:45.994Z,99.99
2016-08-05T10:05:47.762Z,99.99
2016-08-05T10:06:46.007Z,99.99
2016-08-05T10:07:46.409Z,99.99
2016-08-05T10:08:46.009Z,99.99
2016-08-05T10:09:46.021Z,99.99
2016-08-05T10:10:46.621Z,99.99
2016-08-05T10:11:46.020Z,99.99
2016-08-05T10:12:46.030Z,99.99
2016-08-05T10:13:46.035Z,99.99
2016-08-05T10:14:46.088Z,99.99
2016-08-05T10:16:46.597Z,99.99
2016-08-05T10:17:46.046Z,99.99
2016-08-05T10:18:46.055Z,99.99
2016-08-05T10:19:46.064Z,99.99
2016-08-05T10:20:46.063Z,99.99
2016-08-05T10:21:46.070Z,99.99
2016-08-05T10:22:46.075Z,99.99
2016-08-05T10:23:46.095Z,99.99
2016-08-05T10:24:46.082Z,99.99
2016-08-05T10:25:46.087Z,99.99
2016-08-05T10:26:46.095Z,99.99
2016-08-05T10:27:46.705Z,99.99
2016-08-05T10:28:46.100Z,99.99
2016-08-05T10:29:46.107Z,99.99
2016-08-05T10:30:46.116Z,99.99
2016-08-05T10:31:46.117Z,99.99
2016-08-05T10:32:46.125Z,99.99
2016-08-05T10:33:46.125Z,99.99
2016-08-05T10:35:46.142Z,99.99
2016-08-05T10:36:46.465Z,99.99
2016-08-05T10:37:46.153Z,99.99
2016-08-05T10:38:46.158Z,99.99
2016-08-05T10:39:46.731Z,99.99
2016-08-05T10:40:46.174Z,99.99
2016-08-05T10:41:46.164Z,99.99
2016-08-05T10:42:46.176Z,99.99
2016-08-05T10:43:46.185Z,99.99
2016-08-05T10:44:46.193Z,99.99
2016-08-05T10:45:46.199Z,99.99
2016-08-05T10:46:46.898Z,99.99
2016-08-05T10:47:46.223Z,99.99
2016-08-05T10:48:46.214Z,99.99
2016-08-05T10:49:46.226Z,99.99
2016-08-05T10:50:46.234Z,99.99
2016-08-05T10:51:46.235Z,99.99
2016-08-05T10:52:46.247Z,99.99
2016-08-05T10:53:46.251Z,99.99
2016-08-05T10:54:46.264Z,99.99
2016-08-05T10:55:46.266Z,99.99
2016-08-05T10:57:46.279Z,99.99
2016-08-05T10:58:46.287Z,99.99
2016-08-05T10:59:46.293Z,99.99
2016-08-05T11:00:46.299Z,99.99
2016-08-05T11:01:46.309Z,99.99
2016-08-05T11:02:46.313Z,99.99
2016-08-05T11:03:46.323Z,99.99
2016-08-05T11:04:46.325Z,99.99
2016-08-05T11:05:46.336Z,99.99
2016-08-05T11:06:46.341Z,99.99
2016-08-05T11:07:46.348Z,99.99
2016-08-05T11:08:46.352Z,99.99
2016-08-05T11:09:46.361Z,99.99
2016-08-05T11:10:46.369Z,99.99
2016-08-05T11:12:46.381Z,99.99
2016-08-05T11:13:46.393Z,99.99
2016-08-05T11:14:46.396Z,99.99
2016-08-05T11:15:46.404Z,99.99
2016-08-05T11:16:47.101Z,99.99
2016-08-05T11:17:46.421Z,99.99
2016-08-05T11:18:46.425Z,99.99
2016-08-05T11:19:46.430Z,99.99
2016-08-05T11:20:46.439Z,99.99
2016-08-05T11:21:46.451Z,99.99
2016-08-05T11:22:46.452Z,99.99
2016-08-05T11:23:46.467Z,99.99
2016-08-05T11:24:46.472Z,99.99
2016-08-05T11:25:46.778Z,99.99
2016-08-05T11:26:46.483Z,99.99
2016-08-05T11:27:46.489Z,99.99
2016-08-05T11:28:46.503Z,99.99
2016-08-05T11:29:46.510Z,99.99
2016-08-05T11:30:46.512Z,99.99
2016-08-05T11:31:46.524Z,99.99
2016-08-05T11:32:47.625Z,99.99
2016-08-05T11:33:46.531Z,99.99
2016-08-05T11:34:46.844Z,99.99
2016-08-05T11:35:46.552Z,99.99
2016-08-05T11:36:47.356Z,99.99
2016-08-05T11:37:46.615Z,99.99
2016-08-05T11:38:46.874Z,99.99
2016-08-05T11:39:46.581Z,99.99
2016-08-05T11:40:46.589Z,99.99
2016-08-05T11:41:46.595Z,99.99
2016-08-05T11:42:46.597Z,99.99
2016-08-05T11:43:46.603Z,99.99
2016-08-05T11:44:46.618Z,99.99
2016-08-05T11:45:46.644Z,99.99
2016-08-05T11:46:47.342Z,99.99
2016-08-05T11:47:46.638Z,99.99
2016-08-05T11:48:46.648Z,99.99
2016-08-05T11:49:46.656Z,99.99
2016-08-05T11:50:46.764Z,99.99
2016-08-05T11:51:46.677Z,99.99
2016-08-05T11:53:46.684Z,99.99
2016-08-05T11:54:48.258Z,99.99
2016-08-05T11:55:47.315Z,99.99
2016-08-05T11:56:46.705Z,99.99
2016-08-05T11:57:46.709Z,99.99
2016-08-05T11:58:46.721Z,99.99
2016-08-05T11:59:46.727Z,99.99
2016-08-05T12:00:46.734Z,99.99
2016-08-05T12:01:46.740Z,99.99
2016-08-05T12:02:46.752Z,99.99
2016-08-05T12:03:46.769Z,99.99
2016-08-05T12:04:46.762Z,99.99
2016-08-05T12:05:46.769Z,99.99
2016-08-05T12:06:46.779Z,99.99
2016-08-05T12:07:46.787Z,99.99
2016-08-05T12:08:46.790Z,99.99
2016-08-05T12:09:46.802Z,99.99
2016-08-05T12:10:46.807Z,99.99
2016-08-05T12:11:46.819Z,99.99
2016-08-05T12:12:46.823Z,99.99
2016-08-05T12:13:46.831Z,99.99
2016-08-05T12:14:46.842Z,99.99
2016-08-05T12:15:46.847Z,99.99
2016-08-05T12:16:46.864Z,99.99
2016-08-05T12:17:46.865Z,99.99
2016-08-05T12:18:46.871Z,99.99
2016-08-05T12:19:46.878Z,99.99
2016-08-05T12:20:46.888Z,99.99
2016-08-05T12:21:46.888Z,99.99
2016-08-05T12:22:46.903Z,99.99
2016-08-05T12:23:46.924Z,99.99
2016-08-05T12:24:46.916Z,99.99
2016-08-05T12:25:46.921Z,99.99
2016-08-05T12:26:46.934Z,99.99
2016-08-05T12:27:46.937Z,99.99
2016-08-05T12:28:46.944Z,99.99
2016-08-05T12:29:46.954Z,99.99
2016-08-05T12:30:46.974Z,99.99
2016-08-05T12:31:46.969Z,99.99
2016-08-05T12:32:46.975Z,99.99
2016-08-05T12:33:46.987Z,99.99
2016-08-05T12:34:46.988Z,99.99
2016-08-05T12:35:46.994Z,99.99
2016-08-05T12:36:47.008Z,99.99
2016-08-05T12:37:47.015Z,99.99
2016-08-05T12:38:47.019Z,99.99
2016-08-05T12:39:47.024Z,99.99
2016-08-05T12:40:47.033Z,99.99
2016-08-05T12:41:47.044Z,99.99
2016-08-05T12:42:47.198Z,99.99
2016-08-05T12:44:47.116Z,99.99
2016-08-05T12:45:47.076Z,99.99
2016-08-05T12:46:47.530Z,99.99
2016-08-05T12:47:47.284Z,99.99
2016-08-05T12:48:47.099Z,99.99
2016-08-05T12:49:47.102Z,99.99
2016-08-05T12:51:47.117Z,99.99
2016-08-05T12:52:47.484Z,99.99
2016-08-05T12:53:47.135Z,99.99
2016-08-05T12:54:47.237Z,99.99
2016-08-05T12:55:47.145Z,99.99
2016-08-05T12:56:47.159Z,99.99
2016-08-05T12:57:47.158Z,99.99
2016-08-05T12:58:47.167Z,99.99
2016-08-05T12:59:47.173Z,99.99
2016-08-05T13:00:47.182Z,99.99
2016-08-05T13:01:47.194Z,99.99
2016-08-05T13:02:47.633Z,99.99
2016-08-05T13:03:48.508Z,99.99
2016-08-05T13:04:47.710Z,99.99
2016-08-05T13:05:47.408Z,99.99
2016-08-05T13:06:47.229Z,99.99
2016-08-05T13:07:47.234Z,99.99
2016-08-05T13:08:47.936Z,99.99
2016-08-05T13:09:47.297Z,99.99